Time;durP1;ratioP1;P1;durP2;ratioP2;P2;SDS_P1;SDS_P2;PMS_P1;PMS_P2;Temp;Humidity;BMP_temperature;BMP_pressure;BME280_temperature;BME280_humidity;BME280_pressure;Samples;Min_cycle;Max_cycle;Signal;HPM_P1;HPM_P2
2022/01/28 00:03:05;;;;;;;1.53;1.50;;;;;;;;;;6287367;28;20229;-78
2022/01/28 00:06:15;;;;;;;2.10;1.73;;;;;;;;;;6287769;28;20235;-77
2022/01/28 00:09:19;;;;;;;1.80;1.70;;;;;;;;;;6288618;28;20195;-77
2022/01/28 00:12:27;;;;;;;1.60;1.50;;;;;;;;;;6287551;28;20407;-77
2022/01/28 00:15:35;;;;;;;1.80;1.80;;;;;;;;;;6287434;28;20193;-77
2022/01/28 00:19:03;;;;;;;2.00;2.00;;;;;;;;;;6288362;28;20235;-77
2022/01/28 00:38:57;;;;;;;1.30;1.30;;;;;;;;;;6274633;28;20202;-77
2022/01/28 00:42:01;;;;;;;2.50;1.47;;;;;;;;;;6291650;28;20303;-76
2022/01/28 00:45:07;;;;;;;1.20;1.20;;;;;;;;;;6291986;28;20461;-76
2022/01/28 00:48:15;;;;;;;2.03;1.47;;;;;;;;;;6291336;28;20238;-76
2022/01/28 00:51:19;;;;;;;5.63;1.60;;;;;;;;;;6292393;28;20233;-76
2022/01/28 00:54:24;;;;;;;1.43;1.43;;;;;;;;;;6292941;28;20188;-76
2022/01/28 00:57:28;;;;;;;1.30;1.30;;;;;;;;;;6292380;28;20231;-76
2022/01/28 01:00:34;;;;;;;1.60;1.50;;;;;;;;;;6292565;28;20219;-77
2022/01/28 01:03:39;;;;;;;1.33;1.20;;;;;;;;;;6291403;28;20331;-77
2022/01/28 01:06:43;;;;;;;1.47;1.47;;;;;;;;;;6291636;28;20227;-77
2022/01/28 01:09:49;;;;;;;2.00;1.23;;;;;;;;;;6292313;28;20187;-77
2022/01/28 01:12:53;;;;;;;1.40;1.40;;;;;;;;;;6291423;28;20234;-77
2022/01/28 01:16:00;;;;;;;1.63;1.63;;;;;;;;;;6291235;28;20309;-77
2022/01/28 01:19:16;;;;;;;1.50;1.50;;;;;;;;;;6292152;28;20185;-77
2022/01/28 01:22:21;;;;;;;1.20;1.20;;;;;;;;;;6291589;28;20233;-77
2022/01/28 01:25:28;;;;;;;1.40;1.40;;;;;;;;;;6292118;28;20227;-77
2022/01/28 01:28:35;;;;;;;1.20;1.20;;;;;;;;;;6291427;28;20286;-77
2022/01/28 01:31:42;;;;;;;1.27;1.27;;;;;;;;;;6286657;28;20514;-77
2022/01/28 01:34:47;;;;;;;1.30;1.30;;;;;;;;;;6273079;28;20222;-76
2022/01/28 01:37:51;;;;;;;2.03;1.20;;;;;;;;;;6290602;28;20228;-77
2022/01/28 01:40:58;;;;;;;1.40;1.40;;;;;;;;;;6290760;28;20243;-77
2022/01/28 01:44:07;;;;;;;1.33;1.27;;;;;;;;;;6290171;28;20333;-77
2022/01/28 01:53:59;;;;;;;1.40;1.40;;;;;;;;;;6289927;28;20242;-77
2022/01/28 01:57:04;;;;;;;1.53;1.20;;;;;;;;;;6290104;28;20227;-77
2022/01/28 02:00:12;;;;;;;1.63;1.53;;;;;;;;;;6291212;28;20227;-76
2022/01/28 02:03:24;;;;;;;1.30;1.30;;;;;;;;;;6289996;28;20235;-77
2022/01/28 02:06:28;;;;;;;1.23;1.23;;;;;;;;;;6289945;28;20236;-77
2022/01/28 02:09:32;;;;;;;1.57;1.50;;;;;;;;;;6289620;28;20269;-77
2022/01/28 02:12:47;;;;;;;1.70;1.70;;;;;;;;;;6289609;28;20467;-77
2022/01/28 02:15:51;;;;;;;1.50;1.50;;;;;;;;;;6290533;28;20190;-77
2022/01/28 02:18:57;;;;;;;1.70;1.70;;;;;;;;;;6290775;28;20198;-77
2022/01/28 02:22:03;;;;;;;1.67;1.67;;;;;;;;;;6289945;28;20302;-77
2022/01/28 02:25:20;;;;;;;1.73;1.60;;;;;;;;;;6289295;28;20572;-77
2022/01/28 02:28:27;;;;;;;1.60;1.60;;;;;;;;;;6289261;28;20231;-77
2022/01/28 02:31:31;;;;;;;1.77;1.77;;;;;;;;;;6289661;28;20286;-77
2022/01/28 02:34:37;;;;;;;2.20;1.90;;;;;;;;;;6289019;28;20381;-77
2022/01/28 02:37:43;;;;;;;1.90;1.80;;;;;;;;;;6289388;28;20275;-77
2022/01/28 02:40:53;;;;;;;1.70;1.57;;;;;;;;;;6289873;28;20188;-77
2022/01/28 02:44:09;;;;;;;1.53;1.53;;;;;;;;;;6288957;28;20244;-77
2022/01/28 02:47:16;;;;;;;1.70;1.60;;;;;;;;;;6289556;28;20242;-77
2022/01/28 02:50:20;;;;;;;1.60;1.60;;;;;;;;;;6290290;28;20195;-77
2022/01/28 02:53:29;;;;;;;2.03;1.93;;;;;;;;;;6288281;28;20434;-77
2022/01/28 02:56:37;;;;;;;1.20;1.20;;;;;;;;;;6289002;28;20237;-77
2022/01/28 02:59:41;;;;;;;1.40;1.40;;;;;;;;;;6289841;28;20186;-76
2022/01/28 03:02:46;;;;;;;1.50;1.50;;;;;;;;;;6288160;28;20234;-77
2022/01/28 03:05:50;;;;;;;1.83;1.53;;;;;;;;;;6287897;28;20279;-77
2022/01/28 03:08:58;;;;;;;1.43;1.37;;;;;;;;;;6289469;28;20195;-77
2022/01/28 03:12:13;;;;;;;1.40;1.40;;;;;;;;;;6288805;28;20234;-77
2022/01/28 03:15:21;;;;;;;1.13;1.13;;;;;;;;;;6289330;28;20191;-77
2022/01/28 03:18:40;;;;;;;1.50;1.40;;;;;;;;;;6287894;28;20430;-77
2022/01/28 03:21:53;;;;;;;1.20;1.20;;;;;;;;;;6288217;28;20426;-77
2022/01/28 03:24:59;;;;;;;1.10;1.10;;;;;;;;;;6288093;28;20211;-77
2022/01/28 03:28:03;;;;;;;1.30;1.30;;;;;;;;;;6288543;28;20252;-77
2022/01/28 03:31:08;;;;;;;1.10;1.10;;;;;;;;;;6288518;28;20227;-77
2022/01/28 03:34:12;;;;;;;1.10;1.10;;;;;;;;;;6288120;28;20202;-77
2022/01/28 03:37:16;;;;;;;1.10;1.10;;;;;;;;;;6288432;28;20302;-77
2022/01/28 03:40:21;;;;;;;1.00;1.00;;;;;;;;;;6288393;28;20191;-77
2022/01/28 03:43:25;;;;;;;0.90;0.90;;;;;;;;;;6287851;28;20318;-77
2022/01/28 03:46:30;;;;;;;0.87;0.87;;;;;;;;;;6287450;28;20557;-77
2022/01/28 03:49:35;;;;;;;1.00;1.00;;;;;;;;;;6288615;28;20187;-77
2022/01/28 03:52:39;;;;;;;1.00;1.00;;;;;;;;;;6287720;28;20238;-77
2022/01/28 03:55:45;;;;;;;0.87;0.87;;;;;;;;;;6287784;28;20191;-78
2022/01/28 03:58:49;;;;;;;0.90;0.90;;;;;;;;;;6288385;28;20185;-77
2022/01/28 04:01:54;;;;;;;0.90;0.90;;;;;;;;;;6287682;28;20303;-77
2022/01/28 04:11:48;;;;;;;1.00;1.00;;;;;;;;;;6287271;28;20441;-77
2022/01/28 04:15:06;;;;;;;0.80;0.80;;;;;;;;;;6287635;28;20192;-77
2022/01/28 04:18:16;;;;;;;1.00;1.00;;;;;;;;;;6287832;28;20449;-77
2022/01/28 04:21:20;;;;;;;0.77;0.77;;;;;;;;;;6287942;28;20328;-77
2022/01/28 04:24:24;;;;;;;0.90;0.90;;;;;;;;;;6287555;28;20252;-77
2022/01/28 04:27:30;;;;;;;0.90;0.90;;;;;;;;;;6287690;28;20428;-77
2022/01/28 04:30:34;;;;;;;0.80;0.80;;;;;;;;;;6287806;28;20226;-77
2022/01/28 04:33:39;;;;;;;0.90;0.90;;;;;;;;;;6287816;28;20328;-77
2022/01/28 04:36:53;;;;;;;1.07;1.07;;;;;;;;;;6287526;28;20227;-77
2022/01/28 04:40:04;;;;;;;0.93;0.93;;;;;;;;;;6287380;28;20525;-77
2022/01/28 04:43:17;;;;;;;0.97;0.97;;;;;;;;;;6286868;28;20246;-77
2022/01/28 04:46:30;;;;;;;0.83;0.83;;;;;;;;;;6287337;28;20270;-76
2022/01/28 04:49:49;;;;;;;0.83;0.83;;;;;;;;;;6286943;28;20195;-76
2022/01/28 04:53:02;;;;;;;0.80;0.80;;;;;;;;;;6281297;28;20422;-76
2022/01/28 04:56:28;;;;;;;1.13;1.00;;;;;;;;;;6287621;28;20327;-77
2022/01/28 04:59:45;;;;;;;0.80;0.80;;;;;;;;;;6287455;28;20471;-77
2022/01/28 05:03:08;;;;;;;0.80;0.80;;;;;;;;;;6287001;28;20234;-77
2022/01/28 05:26:40;;;;;;;1.57;1.03;;;;;;;;;;6291612;28;20242;-77
2022/01/28 05:29:44;;;;;;;1.30;1.20;;;;;;;;;;6291321;28;20476;-77
2022/01/28 05:32:50;;;;;;;1.00;1.00;;;;;;;;;;6287980;28;20238;-77
2022/01/28 05:35:54;;;;;;;1.10;1.00;;;;;;;;;;6291819;28;20509;-77
2022/01/28 05:38:58;;;;;;;0.93;0.93;;;;;;;;;;6290761;28;20492;-77
2022/01/28 05:42:03;;;;;;;2.33;1.10;;;;;;;;;;6290857;28;20249;-78
2022/01/28 05:45:08;;;;;;;2.87;1.10;;;;;;;;;;6291670;28;20301;-77
2022/01/28 05:48:16;;;;;;;1.43;1.43;;;;;;;;;;6290000;28;20557;-77
2022/01/28 05:51:20;;;;;;;1.87;1.10;;;;;;;;;;6291288;28;20247;-77
2022/01/28 05:54:24;;;;;;;2.23;0.80;;;;;;;;;;6292042;28;20226;-77
2022/01/28 05:57:29;;;;;;;1.70;1.00;;;;;;;;;;6290738;28;20231;-77
2022/01/28 06:00:33;;;;;;;1.23;1.23;;;;;;;;;;6291019;28;20298;-77
2022/01/28 06:03:39;;;;;;;1.00;1.00;;;;;;;;;;6290244;28;20478;-77
2022/01/28 06:06:43;;;;;;;2.03;1.27;;;;;;;;;;6289555;28;20231;-77
2022/01/28 06:09:47;;;;;;;6.00;1.17;;;;;;;;;;6291023;28;20187;-78
2022/01/28 06:12:51;;;;;;;1.90;1.20;;;;;;;;;;6290124;28;20235;-77
2022/01/28 06:15:57;;;;;;;1.03;1.03;;;;;;;;;;6290420;28;20229;-76
2022/01/28 06:19:03;;;;;;;3.10;1.10;;;;;;;;;;6290112;28;20188;-76
2022/01/28 06:22:10;;;;;;;3.63;1.23;;;;;;;;;;6290030;28;20239;-77
2022/01/28 06:25:14;;;;;;;3.77;1.00;;;;;;;;;;6290450;28;20188;-76
2022/01/28 06:28:19;;;;;;;2.80;1.10;;;;;;;;;;6288832;28;20243;-76
2022/01/28 06:31:23;;;;;;;1.37;1.37;;;;;;;;;;6290907;28;20245;-76
2022/01/28 06:34:29;;;;;;;1.90;1.13;;;;;;;;;;6290097;28;20375;-78
2022/01/28 06:37:33;;;;;;;2.33;1.00;;;;;;;;;;6271361;28;20260;-77
2022/01/28 06:40:37;;;;;;;0.90;0.90;;;;;;;;;;6289525;28;20218;-77
2022/01/28 06:43:41;;;;;;;2.70;1.20;;;;;;;;;;6290338;28;20253;-76
2022/01/28 06:46:45;;;;;;;1.43;1.33;;;;;;;;;;6289325;28;20305;-76
2022/01/28 06:49:51;;;;;;;2.23;1.00;;;;;;;;;;6288248;28;20211;-76
2022/01/28 06:52:55;;;;;;;2.90;1.10;;;;;;;;;;6289235;28;20404;-76
2022/01/28 06:55:59;;;;;;;1.20;1.20;;;;;;;;;;6290828;28;20228;-77
2022/01/28 06:59:04;;;;;;;6.50;1.40;;;;;;;;;;6291580;28;20189;-78
2022/01/28 07:02:10;;;;;;;1.20;1.10;;;;;;;;;;6288856;28;20537;-77
2022/01/28 07:05:15;;;;;;;2.03;1.07;;;;;;;;;;6289061;28;20186;-76
2022/01/28 07:08:24;;;;;;;4.50;1.37;;;;;;;;;;6287960;28;20263;-77
2022/01/28 07:11:28;;;;;;;2.40;0.87;;;;;;;;;;6288931;28;20231;-79
2022/01/28 07:14:33;;;;;;;1.00;1.00;;;;;;;;;;6288910;28;20195;-77
2022/01/28 07:17:37;;;;;;;1.77;1.30;;;;;;;;;;6287453;28;20234;-77
2022/01/28 07:20:42;;;;;;;1.43;1.40;;;;;;;;;;6288506;28;20203;-77
2022/01/28 07:23:46;;;;;;;1.60;1.00;;;;;;;;;;6288053;28;20254;-77
2022/01/28 07:26:51;;;;;;;1.47;1.37;;;;;;;;;;6287873;28;20234;-77
2022/01/28 07:29:55;;;;;;;3.90;1.50;;;;;;;;;;6288300;28;20303;-77
2022/01/28 07:33:00;;;;;;;4.30;1.17;;;;;;;;;;6287246;28;20523;-77
2022/01/28 07:36:06;;;;;;;1.03;1.00;;;;;;;;;;6288243;28;20337;-77
2022/01/28 07:39:11;;;;;;;1.10;1.00;;;;;;;;;;6287416;28;20227;-77
2022/01/28 07:42:16;;;;;;;1.30;1.03;;;;;;;;;;6286917;28;20548;-77
2022/01/28 07:45:20;;;;;;;1.30;1.20;;;;;;;;;;6288714;28;20184;-77
2022/01/28 07:48:24;;;;;;;2.20;1.00;;;;;;;;;;6287908;28;20247;-77
2022/01/28 07:51:31;;;;;;;1.40;0.90;;;;;;;;;;6288565;28;20222;-78
2022/01/28 07:54:35;;;;;;;0.90;0.90;;;;;;;;;;6289072;28;20203;-77
2022/01/28 07:57:40;;;;;;;4.40;1.03;;;;;;;;;;6288298;28;20232;-78
2022/01/28 08:00:45;;;;;;;0.93;0.93;;;;;;;;;;6289303;28;20195;-79
2022/01/28 08:03:49;;;;;;;1.30;1.20;;;;;;;;;;6286818;28;20250;-78
2022/01/28 08:06:54;;;;;;;1.30;1.20;;;;;;;;;;6286651;28;20237;-77
2022/01/28 08:09:58;;;;;;;2.00;1.30;;;;;;;;;;6287616;28;20424;-77
2022/01/28 08:13:03;;;;;;;3.60;1.30;;;;;;;;;;6289239;28;20298;-77
2022/01/28 08:16:10;;;;;;;1.13;1.00;;;;;;;;;;6288047;28;20248;-77
2022/01/28 08:19:16;;;;;;;2.37;1.00;;;;;;;;;;6288917;28;20192;-77
2022/01/28 08:22:21;;;;;;;2.13;1.33;;;;;;;;;;6287136;28;20594;-77
2022/01/28 08:25:26;;;;;;;1.53;1.20;;;;;;;;;;6286318;28;20445;-77
2022/01/28 08:28:30;;;;;;;1.10;0.90;;;;;;;;;;6286565;28;20231;-77
2022/01/28 08:31:35;;;;;;;1.23;1.03;;;;;;;;;;6286234;28;20242;-77
2022/01/28 08:34:39;;;;;;;2.43;1.27;;;;;;;;;;6287628;28;20194;-77
2022/01/28 08:37:45;;;;;;;1.17;1.17;;;;;;;;;;6286298;28;20307;-77
2022/01/28 08:40:49;;;;;;;1.40;1.30;;;;;;;;;;6286006;28;20379;-77
2022/01/28 08:43:53;;;;;;;5.63;1.30;;;;;;;;;;6286459;28;20245;-76
2022/01/28 08:46:57;;;;;;;1.10;0.97;;;;;;;;;;6286468;28;20250;-77
2022/01/28 08:50:02;;;;;;;5.47;1.20;;;;;;;;;;6287401;28;20242;-77
2022/01/28 08:53:08;;;;;;;1.13;1.10;;;;;;;;;;6291637;28;20257;-77
2022/01/28 08:56:12;;;;;;;4.97;1.10;;;;;;;;;;6291332;28;20254;-77
2022/01/28 08:59:16;;;;;;;1.30;1.30;;;;;;;;;;6290898;28;20197;-77
2022/01/28 09:02:20;;;;;;;2.03;1.50;;;;;;;;;;6291468;28;20228;-77
2022/01/28 09:05:25;;;;;;;1.00;1.00;;;;;;;;;;6291768;28;20195;-77
2022/01/28 09:08:32;;;;;;;3.13;1.13;;;;;;;;;;6291249;28;20224;-76
2022/01/28 09:11:48;;;;;;;1.20;1.20;;;;;;;;;;6283160;28;20249;-77
2022/01/28 09:14:52;;;;;;;6.47;1.50;;;;;;;;;;6292458;28;20232;-77
2022/01/28 09:18:18;;;;;;;3.37;1.20;;;;;;;;;;6291162;28;20235;-77
2022/01/28 09:21:22;;;;;;;3.77;1.40;;;;;;;;;;6291015;28;20282;-77
2022/01/28 09:24:28;;;;;;;1.17;1.13;;;;;;;;;;6290931;28;20488;-76
2022/01/28 09:27:32;;;;;;;5.07;1.27;;;;;;;;;;6290461;28;20246;-77
2022/01/28 09:30:36;;;;;;;2.37;1.33;;;;;;;;;;6286580;28;20543;-78
2022/01/28 09:33:40;;;;;;;4.07;1.30;;;;;;;;;;6290142;28;20435;-76
2022/01/28 09:36:44;;;;;;;1.00;1.00;;;;;;;;;;6290990;28;20231;-77
2022/01/28 09:39:50;;;;;;;1.97;0.97;;;;;;;;;;6291371;28;20188;-76
2022/01/28 09:42:54;;;;;;;8.13;1.30;;;;;;;;;;6290058;28;20249;-76
2022/01/28 09:45:58;;;;;;;1.47;1.10;;;;;;;;;;6290144;28;20233;-77
2022/01/28 09:49:03;;;;;;;1.27;1.07;;;;;;;;;;6291211;28;20212;-76
2022/01/28 09:52:12;;;;;;;1.67;1.10;;;;;;;;;;6290521;28;20230;-77
2022/01/28 09:55:18;;;;;;;2.00;1.30;;;;;;;;;;6291259;28;20327;-76
2022/01/28 09:58:22;;;;;;;1.27;1.27;;;;;;;;;;6290468;28;20244;-77
2022/01/28 10:01:27;;;;;;;5.60;1.10;;;;;;;;;;6289140;28;20231;-76
2022/01/28 10:04:31;;;;;;;1.00;1.00;;;;;;;;;;6290584;28;20486;-76
2022/01/28 10:07:35;;;;;;;3.60;1.20;;;;;;;;;;6289989;28;20223;-77
2022/01/28 10:10:58;;;;;;;2.37;0.93;;;;;;;;;;6288943;28;20243;-77
2022/01/28 10:14:08;;;;;;;1.87;0.90;;;;;;;;;;6289565;28;20470;-77
2022/01/28 10:17:12;;;;;;;1.70;1.00;;;;;;;;;;6289646;28;20542;-77
2022/01/28 10:20:17;;;;;;;1.00;1.00;;;;;;;;;;6290675;28;20255;-76
2022/01/28 10:23:22;;;;;;;1.60;1.50;;;;;;;;;;6289320;28;20239;-76
2022/01/28 10:26:32;;;;;;;0.97;0.97;;;;;;;;;;6288706;28;20257;-76
2022/01/28 10:29:39;;;;;;;0.90;0.90;;;;;;;;;;6288718;28;20223;-76
2022/01/28 10:32:44;;;;;;;1.33;1.23;;;;;;;;;;6288690;28;20321;-76
2022/01/28 10:35:53;;;;;;;1.40;1.10;;;;;;;;;;6289660;28;20255;-76
2022/01/28 10:38:58;;;;;;;2.03;1.27;;;;;;;;;;6290311;28;20233;-76
2022/01/28 10:42:04;;;;;;;1.00;1.00;;;;;;;;;;6289120;28;20372;-76
2022/01/28 10:45:13;;;;;;;1.07;1.07;;;;;;;;;;6289086;28;20184;-76
2022/01/28 10:48:23;;;;;;;1.10;1.10;;;;;;;;;;6288677;28;20234;-77
2022/01/28 10:51:39;;;;;;;0.90;0.90;;;;;;;;;;6288221;28;20231;-77
2022/01/28 10:54:57;;;;;;;1.10;0.90;;;;;;;;;;6289169;28;20485;-77
2022/01/28 10:58:04;;;;;;;1.00;1.00;;;;;;;;;;6288578;28;20629;-77
2022/01/28 11:01:14;;;;;;;5.23;1.00;;;;;;;;;;6289074;28;20238;-77
2022/01/28 11:04:19;;;;;;;2.83;1.10;;;;;;;;;;6288742;28;20192;-77
2022/01/28 11:07:24;;;;;;;1.50;1.00;;;;;;;;;;6288012;28;20234;-77
2022/01/28 11:10:28;;;;;;;5.30;1.00;;;;;;;;;;6289401;28;20212;-77
2022/01/28 11:13:34;;;;;;;1.00;1.00;;;;;;;;;;6288074;28;20227;-77
2022/01/28 11:16:39;;;;;;;1.07;1.07;;;;;;;;;;6288538;28;20281;-77
2022/01/28 11:19:44;;;;;;;1.17;1.07;;;;;;;;;;6288080;28;20221;-77
2022/01/28 11:22:56;;;;;;;0.97;0.97;;;;;;;;;;6287410;28;20230;-77
2022/01/28 11:26:16;;;;;;;5.93;1.10;;;;;;;;;;6288201;28;20326;-77
2022/01/28 11:29:25;;;;;;;0.87;0.87;;;;;;;;;;6288296;28;20184;-77
2022/01/28 11:32:29;;;;;;;1.10;1.10;;;;;;;;;;6287602;28;20241;-77
2022/01/28 11:35:36;;;;;;;1.00;1.00;;;;;;;;;;6288466;28;20187;-77
2022/01/28 11:38:45;;;;;;;1.10;1.10;;;;;;;;;;6289668;28;20225;-77
2022/01/28 11:42:02;;;;;;;1.80;1.10;;;;;;;;;;6287231;28;20262;-77
2022/01/28 11:45:08;;;;;;;4.33;1.30;;;;;;;;;;6288407;28;20257;-77
2022/01/28 11:48:15;;;;;;;2.77;1.00;;;;;;;;;;6287144;28;20244;-77
2022/01/28 11:51:20;;;;;;;2.80;0.90;;;;;;;;;;6287341;28;20229;-77
2022/01/28 11:54:36;;;;;;;1.03;1.03;;;;;;;;;;6287789;28;20258;-77
2022/01/28 11:57:51;;;;;;;2.43;1.00;;;;;;;;;;6287544;28;20255;-77
2022/01/28 12:00:56;;;;;;;1.70;0.93;;;;;;;;;;6287362;28;20192;-77
2022/01/28 12:04:35;;;;;;;1.10;1.03;;;;;;;;;;6287376;28;20372;-77
2022/01/28 12:07:39;;;;;;;0.90;0.90;;;;;;;;;;6286590;28;20239;-77
2022/01/28 12:10:45;;;;;;;3.00;0.87;;;;;;;;;;6287884;28;20220;-77
2022/01/28 12:14:00;;;;;;;1.00;1.00;;;;;;;;;;6286575;28;20475;-77
2022/01/28 12:17:36;;;;;;;3.17;1.20;;;;;;;;;;6286584;28;20254;-77
2022/01/28 12:21:01;;;;;;;0.90;0.90;;;;;;;;;;6281695;28;20231;-77
2022/01/28 12:24:33;;;;;;;0.90;0.90;;;;;;;;;;6286723;28;20185;-77
2022/01/28 12:27:37;;;;;;;1.50;1.03;;;;;;;;;;6279180;28;20352;-76
2022/01/28 12:30:44;;;;;;;3.90;0.90;;;;;;;;;;6292117;28;20250;-77
2022/01/28 12:33:50;;;;;;;0.83;0.83;;;;;;;;;;6293600;28;20191;-76
2022/01/28 12:36:59;;;;;;;0.93;0.90;;;;;;;;;;6292252;28;20582;-76
2022/01/28 12:40:13;;;;;;;0.90;0.90;;;;;;;;;;6292848;28;20194;-77
2022/01/28 12:43:19;;;;;;;2.40;0.93;;;;;;;;;;6290932;28;20245;-77
2022/01/28 12:46:25;;;;;;;1.77;0.93;;;;;;;;;;6291797;28;20232;-77
2022/01/28 12:49:31;;;;;;;1.10;1.00;;;;;;;;;;6292427;28;20260;-77
2022/01/28 12:52:37;;;;;;;0.97;0.97;;;;;;;;;;6290784;28;20538;-77
2022/01/28 12:55:42;;;;;;;1.20;1.20;;;;;;;;;;6291846;28;20264;-77
2022/01/28 12:58:49;;;;;;;0.97;0.97;;;;;;;;;;6292008;28;20192;-77
2022/01/28 13:01:53;;;;;;;0.90;0.87;;;;;;;;;;6291431;28;20231;-77
2022/01/28 13:05:11;;;;;;;3.50;0.90;;;;;;;;;;6291253;28;20185;-77
2022/01/28 13:08:27;;;;;;;0.70;0.70;;;;;;;;;;6291711;28;20285;-77
2022/01/28 13:11:31;;;;;;;4.10;0.90;;;;;;;;;;6290589;28;20527;-77
2022/01/28 13:14:36;;;;;;;0.80;0.80;;;;;;;;;;6292418;28;20259;-76
2022/01/28 13:17:42;;;;;;;2.20;0.90;;;;;;;;;;6283417;28;20291;-76
2022/01/28 13:20:46;;;;;;;6.93;1.10;;;;;;;;;;6291723;28;20214;-77
2022/01/28 13:24:07;;;;;;;1.20;1.10;;;;;;;;;;6290621;28;20207;-77
2022/01/28 13:27:11;;;;;;;0.83;0.70;;;;;;;;;;6290860;28;20231;-77
2022/01/28 13:30:16;;;;;;;1.00;1.00;;;;;;;;;;6291308;28;20224;-77
2022/01/28 13:33:28;;;;;;;0.97;0.80;;;;;;;;;;6289872;28;20416;-76
2022/01/28 13:36:46;;;;;;;2.47;0.90;;;;;;;;;;6290198;28;20236;-76
2022/01/28 13:39:52;;;;;;;1.03;0.80;;;;;;;;;;6290155;28;20219;-77
2022/01/28 13:42:57;;;;;;;3.03;0.80;;;;;;;;;;6289555;28;20456;-77
2022/01/28 13:46:13;;;;;;;3.60;1.13;;;;;;;;;;6289730;28;20589;-77
2022/01/28 13:49:17;;;;;;;0.77;0.77;;;;;;;;;;6291372;28;20191;-77
2022/01/28 13:52:28;;;;;;;2.47;1.13;;;;;;;;;;6290086;28;20437;-77
2022/01/28 13:55:34;;;;;;;2.17;1.00;;;;;;;;;;6289976;28;20270;-77
2022/01/28 13:58:48;;;;;;;3.40;1.03;;;;;;;;;;6282311;28;20204;-77
2022/01/28 14:01:54;;;;;;;1.33;1.23;;;;;;;;;;6290000;28;20224;-77
2022/01/28 14:05:00;;;;;;;1.00;1.00;;;;;;;;;;6290529;28;20250;-77
2022/01/28 14:08:04;;;;;;;0.90;0.90;;;;;;;;;;6289528;28;20235;-77
2022/01/28 14:11:28;;;;;;;7.53;1.00;;;;;;;;;;6290068;28;20235;-77
2022/01/28 14:14:34;;;;;;;3.23;1.13;;;;;;;;;;6290813;28;20238;-76
2022/01/28 14:17:42;;;;;;;0.90;0.90;;;;;;;;;;6289750;28;20229;-77
2022/01/28 14:20:46;;;;;;;0.70;0.70;;;;;;;;;;6290146;28;20185;-77
2022/01/28 14:23:51;;;;;;;4.97;0.90;;;;;;;;;;6290251;28;20255;-77
2022/01/28 14:27:12;;;;;;;1.40;1.10;;;;;;;;;;6289137;28;20538;-76
2022/01/28 14:30:22;;;;;;;1.00;1.00;;;;;;;;;;6289039;28;20207;-77
2022/01/28 14:33:26;;;;;;;0.90;0.90;;;;;;;;;;6288461;28;20235;-76
2022/01/28 14:36:40;;;;;;;2.83;0.93;;;;;;;;;;6289604;28;20246;-77
2022/01/28 14:39:45;;;;;;;1.30;1.10;;;;;;;;;;6290328;28;20195;-77
2022/01/28 14:42:50;;;;;;;1.07;1.07;;;;;;;;;;6288482;28;20307;-76
2022/01/28 14:45:54;;;;;;;1.30;0.90;;;;;;;;;;6287944;28;20447;-77
2022/01/28 14:49:00;;;;;;;1.00;1.00;;;;;;;;;;6287746;28;20259;-77
2022/01/28 14:52:09;;;;;;;2.83;1.10;;;;;;;;;;6288640;28;20231;-76
2022/01/28 14:55:14;;;;;;;0.90;0.90;;;;;;;;;;6289344;28;20201;-76
2022/01/28 14:58:19;;;;;;;3.67;0.90;;;;;;;;;;6288038;28;20230;-76
2022/01/28 15:01:23;;;;;;;2.53;1.23;;;;;;;;;;6287789;28;20429;-76
2022/01/28 15:04:27;;;;;;;3.00;1.20;;;;;;;;;;6288609;28;20465;-77
2022/01/28 15:07:32;;;;;;;2.97;1.00;;;;;;;;;;6288680;28;20233;-77
2022/01/28 15:10:38;;;;;;;1.73;1.00;;;;;;;;;;6289836;28;20452;-77
2022/01/28 15:13:44;;;;;;;1.00;1.00;;;;;;;;;;6289259;28;20208;-77
2022/01/28 15:16:49;;;;;;;1.77;1.00;;;;;;;;;;6288557;28;20227;-77
2022/01/28 15:19:53;;;;;;;0.97;0.97;;;;;;;;;;6287719;28;20188;-77
2022/01/28 15:22:58;;;;;;;4.73;1.17;;;;;;;;;;6287599;28;20390;-77
2022/01/28 15:26:03;;;;;;;1.00;1.00;;;;;;;;;;6287689;28;20257;-77
2022/01/28 15:29:11;;;;;;;5.50;1.40;;;;;;;;;;6287687;28;20188;-77
2022/01/28 15:39:50;;;;;;;1.27;1.00;;;;;;;;;;6359610;27;24559;-76
2022/01/28 15:43:00;;;;;;;6.57;0.80;;;;;;;;;;6320129;27;20229;-77
2022/01/28 15:46:04;;;;;;;9.63;1.30;;;;;;;;;;6307691;28;20222;-77
2022/01/28 15:49:12;;;;;;;2.50;0.90;;;;;;;;;;6308338;28;20305;-78
2022/01/28 15:52:16;;;;;;;1.00;1.00;;;;;;;;;;6307873;28;20528;-77
2022/01/28 15:55:22;;;;;;;0.90;0.90;;;;;;;;;;6309268;28;20194;-76
2022/01/28 15:58:26;;;;;;;2.87;0.90;;;;;;;;;;6307947;28;20305;-77
2022/01/28 16:01:30;;;;;;;2.47;0.90;;;;;;;;;;6308431;28;20234;-77
2022/01/28 16:04:35;;;;;;;3.37;0.90;;;;;;;;;;6308281;28;20265;-77
2022/01/28 16:07:39;;;;;;;0.90;0.90;;;;;;;;;;6308156;28;20543;-77
2022/01/28 16:11:02;;;;;;;1.07;0.80;;;;;;;;;;6308297;28;20221;-78
2022/01/28 16:14:15;;;;;;;1.07;1.07;;;;;;;;;;6307949;28;20187;-77
2022/01/28 16:17:37;;;;;;;1.00;1.00;;;;;;;;;;6307958;28;20235;-77
2022/01/28 16:20:41;;;;;;;4.00;1.40;;;;;;;;;;6307986;28;20225;-77
2022/01/28 16:23:45;;;;;;;2.43;1.00;;;;;;;;;;6307720;28;20232;-76
2022/01/28 16:26:52;;;;;;;2.30;1.30;;;;;;;;;;6307318;28;20241;-76
2022/01/28 16:29:55;;;;;;;3.07;1.17;;;;;;;;;;6307731;28;20185;-76
2022/01/28 16:32:59;;;;;;;2.73;1.10;;;;;;;;;;6306035;28;20297;-76
2022/01/28 16:36:05;;;;;;;1.63;1.10;;;;;;;;;;6307179;28;20230;-77
2022/01/28 16:39:10;;;;;;;1.20;1.10;;;;;;;;;;6307162;28;20456;-76
2022/01/28 16:42:24;;;;;;;5.47;1.10;;;;;;;;;;6307062;28;20280;-76
2022/01/28 16:45:29;;;;;;;1.97;1.30;;;;;;;;;;6306622;28;20192;-77
2022/01/28 16:48:33;;;;;;;1.60;1.17;;;;;;;;;;6303403;28;20336;-76
2022/01/28 16:51:37;;;;;;;1.10;1.10;;;;;;;;;;6291384;28;20232;-77
2022/01/28 16:54:42;;;;;;;1.33;1.20;;;;;;;;;;6290976;28;20218;-75
2022/01/28 16:57:49;;;;;;;4.87;1.10;;;;;;;;;;6290589;28;20234;-76
2022/01/28 17:00:53;;;;;;;4.50;1.20;;;;;;;;;;6290358;28;20298;-76
2022/01/28 17:03:58;;;;;;;1.10;1.10;;;;;;;;;;6291263;28;20263;-77
2022/01/28 17:07:02;;;;;;;3.87;1.20;;;;;;;;;;6291086;28;20304;-77
2022/01/28 17:10:11;;;;;;;2.63;1.30;;;;;;;;;;6292705;28;20196;-79
2022/01/28 17:13:17;;;;;;;3.27;1.30;;;;;;;;;;6292857;28;20233;-79
2022/01/28 17:16:23;;;;;;;3.13;1.20;;;;;;;;;;6290775;28;20338;-78
2022/01/28 17:19:27;;;;;;;1.30;1.07;;;;;;;;;;6290919;28;20214;-78
2022/01/28 17:22:32;;;;;;;2.67;1.23;;;;;;;;;;6291184;28;20233;-79
2022/01/28 17:25:36;;;;;;;3.30;1.37;;;;;;;;;;6289846;28;20185;-78
2022/01/28 17:28:42;;;;;;;1.30;1.20;;;;;;;;;;6290023;28;20212;-79
2022/01/28 17:31:46;;;;;;;1.90;1.20;;;;;;;;;;6291348;28;20529;-79
2022/01/28 17:34:51;;;;;;;1.00;1.00;;;;;;;;;;6290182;28;20393;-80
2022/01/28 17:37:55;;;;;;;1.20;1.20;;;;;;;;;;6290152;28;20233;-80
2022/01/28 17:41:00;;;;;;;2.93;1.23;;;;;;;;;;6291233;28;20484;-77
2022/01/28 17:44:06;;;;;;;5.40;1.40;;;;;;;;;;6291025;28;20194;-78
2022/01/28 17:47:10;;;;;;;2.07;1.33;;;;;;;;;;6289782;28;20288;-78
2022/01/28 17:50:14;;;;;;;3.00;1.43;;;;;;;;;;6290022;28;20252;-78
2022/01/28 17:53:19;;;;;;;1.53;1.33;;;;;;;;;;6293882;28;20236;-79
2022/01/28 17:56:23;;;;;;;1.40;1.40;;;;;;;;;;6292769;28;20300;-78
2022/01/28 17:59:28;;;;;;;10.83;1.33;;;;;;;;;;6291004;28;20255;-77
2022/01/28 18:02:32;;;;;;;6.60;1.47;;;;;;;;;;6287071;28;20494;-79
2022/01/28 18:05:37;;;;;;;1.83;1.20;;;;;;;;;;6288822;28;20191;-77
2022/01/28 18:08:41;;;;;;;1.37;1.27;;;;;;;;;;6288074;28;20530;-77
2022/01/28 18:11:45;;;;;;;1.63;1.53;;;;;;;;;;6287921;28;20420;-78
2022/01/28 18:14:51;;;;;;;2.23;1.33;;;;;;;;;;6290606;28;20192;-77
2022/01/28 18:17:55;;;;;;;2.23;1.10;;;;;;;;;;6289139;28;20229;-77
2022/01/28 18:20:59;;;;;;;1.00;1.00;;;;;;;;;;6289646;28;20234;-77
2022/01/28 18:24:05;;;;;;;3.97;1.50;;;;;;;;;;6288646;28;20191;-77
2022/01/28 18:27:13;;;;;;;1.07;1.03;;;;;;;;;;6288793;28;20304;-77
2022/01/28 18:30:18;;;;;;;3.10;1.47;;;;;;;;;;6289375;28;20242;-77
2022/01/28 18:33:22;;;;;;;2.83;1.57;;;;;;;;;;6287989;28;20248;-79
2022/01/28 18:36:30;;;;;;;2.60;1.60;;;;;;;;;;6289313;28;20290;-79
2022/01/28 18:39:33;;;;;;;5.47;1.50;;;;;;;;;;6291132;28;20240;-78
2022/01/28 18:42:43;;;;;;;2.17;1.40;;;;;;;;;;6288315;28;20296;-77
2022/01/28 18:45:49;;;;;;;4.63;1.50;;;;;;;;;;6286773;28;20352;-77
2022/01/28 18:48:53;;;;;;;1.53;1.50;;;;;;;;;;6287906;28;20225;-77
2022/01/28 18:51:58;;;;;;;1.60;1.10;;;;;;;;;;6288486;28;20228;-78
2022/01/28 18:55:03;;;;;;;1.40;1.40;;;;;;;;;;6289684;28;20249;-78
2022/01/28 18:58:07;;;;;;;1.20;1.20;;;;;;;;;;6287233;28;20229;-77
2022/01/28 19:01:13;;;;;;;1.40;1.07;;;;;;;;;;6287790;28;20502;-77
2022/01/28 19:04:20;;;;;;;4.17;1.37;;;;;;;;;;6287530;28;20185;-77
2022/01/28 19:07:25;;;;;;;1.47;1.37;;;;;;;;;;6287305;28;20252;-77
2022/01/28 19:10:29;;;;;;;1.93;1.50;;;;;;;;;;6285954;28;20463;-76
2022/01/28 19:13:35;;;;;;;1.30;1.20;;;;;;;;;;6287971;28;20189;-77
2022/01/28 19:16:40;;;;;;;2.77;1.50;;;;;;;;;;6287374;28;20260;-76
2022/01/28 19:19:46;;;;;;;9.83;1.40;;;;;;;;;;6287450;28;20287;-77
2022/01/28 19:22:50;;;;;;;4.33;1.20;;;;;;;;;;6287756;28;20274;-76
2022/01/28 19:25:54;;;;;;;1.30;1.30;;;;;;;;;;6287279;28;20363;-76
2022/01/28 19:28:59;;;;;;;3.37;1.10;;;;;;;;;;6287972;28;20225;-75
2022/01/28 19:32:07;;;;;;;1.27;1.27;;;;;;;;;;6286570;28;20244;-75
2022/01/28 19:35:12;;;;;;;1.93;1.50;;;;;;;;;;6287177;28;20234;-76
2022/01/28 19:38:17;;;;;;;1.20;1.20;;;;;;;;;;6287172;28;20245;-77
2022/01/28 19:41:21;;;;;;;1.37;1.27;;;;;;;;;;6287475;28;20290;-76